createdAt,value
2023-05-17T04:32:12.652Z,11.95
2023-05-17T04:35:15.377Z,13.35
2023-05-17T04:38:18.016Z,11.20
2023-05-17T04:41:20.656Z,9.52
2023-05-17T04:44:23.336Z,9.73
2023-05-17T04:47:26.318Z,13.68
2023-05-17T04:50:29.049Z,14.07
2023-05-17T04:53:31.775Z,9.73
2023-05-17T04:56:37.448Z,14.45
2023-05-17T04:59:40.006Z,16.90
2023-05-17T05:02:42.666Z,13.93
2023-05-17T05:05:45.559Z,14.45
2023-05-17T05:08:48.133Z,10.55
2023-05-17T05:11:50.831Z,10.57
2023-05-17T05:14:53.458Z,12.90
2023-05-17T05:17:56.184Z,8.63
2023-05-17T05:20:59.509Z,12.70
2023-05-17T05:24:02.105Z,14.13
2023-05-17T05:27:06.948Z,13.70
2023-05-17T05:33:12.535Z,16.55
2023-05-17T05:36:15.173Z,15.50
2023-05-17T05:39:18.227Z,13.57
2023-05-17T05:42:20.842Z,14.73
2023-05-17T05:45:23.441Z,20.10
2023-05-17T05:48:26.224Z,13.20
2023-05-17T05:51:28.963Z,12.48
2023-05-17T05:54:31.579Z,17.00
2023-05-17T05:57:34.772Z,15.05
2023-05-17T06:00:37.799Z,15.93
2023-05-17T06:03:40.700Z,14.80
2023-05-17T06:06:43.580Z,17.92
2023-05-17T06:09:46.415Z,19.20
2023-05-17T06:12:49.149Z,13.82
2023-05-17T06:15:51.814Z,17.75
2023-05-17T06:18:54.517Z,17.05
2023-05-17T06:21:57.333Z,17.00
2023-05-17T06:24:59.961Z,18.85
2023-05-17T06:28:04.187Z,14.50
2023-05-17T06:31:06.854Z,33.30
2023-05-17T06:34:09.558Z,22.95
2023-05-17T06:37:12.227Z,18.58
2023-05-17T06:40:16.525Z,18.52
2023-05-17T06:43:35.800Z,18.98
2023-05-17T06:46:40.167Z,20.98
2023-05-17T06:49:42.769Z,18.30
2023-05-17T06:52:45.486Z,18.17
2023-05-17T06:55:48.083Z,14.45
2023-05-17T06:58:50.702Z,21.37
2023-05-17T07:01:53.680Z,19.90
2023-05-17T07:04:56.849Z,15.80
2023-05-17T07:07:59.584Z,22.35
2023-05-17T07:11:03.101Z,22.67
2023-05-17T07:14:05.843Z,16.70
2023-05-17T07:17:10.843Z,17.48
2023-05-17T07:20:13.622Z,16.37
2023-05-17T07:23:16.433Z,21.33
2023-05-17T07:26:22.250Z,21.12
2023-05-17T07:29:25.833Z,24.30
2023-05-17T07:32:28.650Z,20.75
2023-05-17T07:35:31.531Z,19.77
2023-05-17T07:38:37.163Z,21.33
2023-05-17T07:41:39.875Z,18.62
2023-05-17T07:44:42.506Z,18.67
2023-05-17T07:47:45.131Z,18.85
2023-05-17T07:50:49.142Z,17.85
2023-05-17T07:53:51.689Z,18.48
2023-05-17T07:56:55.545Z,18.12
2023-05-17T07:59:58.098Z,20.15
2023-05-17T08:03:01.788Z,17.75
2023-05-17T08:06:05.214Z,14.60
2023-05-17T08:09:09.830Z,25.45
2023-05-17T08:12:13.948Z,15.13
2023-05-17T08:15:16.916Z,16.25
2023-05-17T08:18:19.713Z,14.27
2023-05-17T08:21:23.315Z,15.70
2023-05-17T08:24:26.935Z,14.40
2023-05-17T08:27:32.683Z,20.33
2023-05-17T08:30:35.962Z,15.00
2023-05-17T08:33:39.070Z,17.17
2023-05-17T08:36:42.609Z,18.02
2023-05-17T08:39:45.517Z,14.68
2023-05-17T08:42:48.223Z,19.67
2023-05-17T08:45:50.978Z,14.40
2023-05-17T08:48:56.265Z,16.70
2023-05-17T08:52:00.869Z,22.85
2023-05-17T08:55:04.161Z,23.35
2023-05-17T08:58:07.317Z,21.23
2023-05-17T09:01:10.221Z,25.50
2023-05-17T09:04:12.879Z,22.92
2023-05-17T09:07:17.293Z,23.38
2023-05-17T09:10:20.205Z,22.15
2023-05-17T09:13:22.793Z,24.30
2023-05-17T09:16:26.600Z,21.55
2023-05-17T09:19:29.302Z,22.70
2023-05-17T09:22:32.090Z,21.25
2023-05-17T09:25:34.778Z,24.15
2023-05-17T09:28:39.189Z,24.23
2023-05-17T09:31:43.439Z,21.83
2023-05-17T09:34:47.125Z,28.13
2023-05-17T09:37:49.711Z,23.30
2023-05-17T09:40:52.316Z,26.17
2023-05-17T09:43:58.746Z,25.50
2023-05-17T09:47:01.312Z,27.85
2023-05-17T09:50:05.028Z,25.08
2023-05-17T09:53:07.973Z,21.20
2023-05-17T09:56:10.743Z,26.23
2023-05-17T09:59:14.976Z,25.35
2023-05-17T10:02:22.741Z,25.13
2023-05-17T10:05:25.638Z,24.12
2023-05-17T10:08:28.526Z,31.15
2023-05-17T10:11:34.461Z,19.95
2023-05-17T10:14:37.272Z,20.00
2023-05-17T10:17:44.707Z,19.80
2023-05-17T10:20:48.329Z,22.70
2023-05-17T10:23:51.267Z,22.48
2023-05-17T10:26:54.159Z,24.05
2023-05-17T10:29:57.150Z,24.45
2023-05-17T10:33:00.850Z,19.85
2023-05-17T10:36:03.790Z,24.10
2023-05-17T10:39:09.934Z,23.65
2023-05-17T10:42:15.127Z,24.52
2023-05-17T10:45:24.331Z,24.37
2023-05-17T10:48:29.162Z,26.42
2023-05-17T10:51:34.012Z,22.70
2023-05-17T10:54:37.111Z,35.13
2023-05-17T10:57:49.935Z,23.98
2023-05-17T11:00:55.947Z,35.78
2023-05-17T11:07:21.943Z,19.42
2023-05-17T11:10:25.507Z,28.15
2023-05-17T11:13:28.574Z,24.70
2023-05-17T11:16:38.521Z,22.77
2023-05-17T11:19:57.630Z,30.45
2023-05-17T11:23:07.356Z,27.42
2023-05-17T11:26:37.696Z,28.35
2023-05-17T11:29:42.554Z,21.05
2023-05-17T11:32:56.274Z,21.95
2023-05-17T11:35:59.166Z,17.58
2023-05-17T11:39:16.346Z,19.75
2023-05-17T11:42:25.179Z,25.65
2023-05-17T11:45:28.224Z,20.98
2023-05-17T11:48:32.005Z,18.25
2023-05-17T11:51:36.208Z,18.30
2023-05-17T11:54:39.481Z,17.70
2023-05-17T11:57:42.108Z,16.15
2023-05-17T12:00:45.732Z,17.83
2023-05-17T12:03:48.767Z,16.05
2023-05-17T12:06:54.899Z,20.50
2023-05-17T12:10:00.476Z,21.35
2023-05-17T12:13:04.186Z,15.30
2023-05-17T12:16:11.639Z,19.95
2023-05-17T12:19:21.369Z,21.50
2023-05-17T12:22:34.738Z,17.98
2023-05-17T12:25:40.803Z,19.10
2023-05-17T12:28:54.221Z,25.88
2023-05-17T12:31:56.863Z,17.65
2023-05-17T12:34:59.755Z,16.50
2023-05-17T12:38:02.530Z,11.95
2023-05-17T12:41:06.094Z,20.58
2023-05-17T12:44:15.419Z,14.57
2023-05-17T12:47:18.894Z,16.08
2023-05-17T12:50:30.993Z,17.60
2023-05-17T12:53:41.347Z,14.90
2023-05-17T12:56:44.740Z,10.98
2023-05-17T12:59:49.110Z,19.30
2023-05-17T13:02:51.868Z,11.77
2023-05-17T13:06:05.687Z,21.27
2023-05-17T13:09:08.505Z,16.85
2023-05-17T13:12:11.196Z,12.57
2023-05-17T13:15:13.857Z,16.52
2023-05-17T13:18:16.736Z,12.65
2023-05-17T13:21:20.002Z,11.90
2023-05-17T13:24:22.673Z,13.52
2023-05-17T13:27:25.274Z,13.93
2023-05-17T13:30:28.007Z,12.55
2023-05-17T13:33:31.966Z,17.12
2023-05-17T13:36:34.685Z,13.57
2023-05-17T13:39:37.350Z,9.13
2023-05-17T13:42:39.966Z,12.60
2023-05-17T13:45:42.539Z,13.88
2023-05-17T13:48:45.462Z,15.73
2023-05-17T13:51:48.054Z,12.63
2023-05-17T13:54:50.631Z,17.02
2023-05-17T13:57:53.223Z,10.65
2023-05-17T14:00:55.977Z,16.45
2023-05-17T14:03:59.299Z,11.60
2023-05-17T14:07:03.622Z,13.38
2023-05-17T14:10:06.979Z,11.00
2023-05-17T14:13:09.439Z,13.10
2023-05-17T14:16:11.960Z,11.10
2023-05-17T14:19:14.697Z,17.20
2023-05-17T14:22:17.285Z,12.50
2023-05-17T14:25:19.888Z,11.90
2023-05-17T14:28:22.446Z,12.30
2023-05-17T14:31:25.054Z,17.83
2023-05-17T14:34:27.776Z,14.55
2023-05-17T14:37:30.574Z,14.05
2023-05-17T14:40:33.169Z,10.10
2023-05-17T14:43:36.115Z,13.35
2023-05-17T14:46:38.841Z,9.73
2023-05-17T14:49:41.745Z,16.45
2023-05-17T14:52:44.577Z,11.80
2023-05-17T14:55:47.818Z,11.68
2023-05-17T14:58:51.325Z,14.63
2023-05-17T15:01:53.988Z,10.98
2023-05-17T15:04:57.220Z,9.02
2023-05-17T15:07:59.906Z,5.93
2023-05-17T15:11:02.542Z,5.03
2023-05-17T15:14:06.250Z,8.57
2023-05-17T15:17:08.881Z,12.63
2023-05-17T15:20:11.894Z,8.23
2023-05-17T15:23:14.498Z,6.85
